This is the latest recevied weather packets stored in our database for station/object IZ1CYF-13. If no packets are shown the sender has not sent any weather packets the latest 10 day(s).
| Time | Temp. | Humidity | Pressure | Rain* | Wind** | Luminosity | Snow |
|---|---|---|---|---|---|---|---|
| 1777741752 | 22.78° C | 35% | 1020.7 hPa | - | - | - | - |
| 1777740551 | 23.33° C | 34% | 1020.7 hPa | - | - | - | - |
| 1777739951 | 24.44° C | 32% | 1020.5 hPa | - | - | - | - |
| 1777738736 | 23.33° C | 33% | 1020.9 hPa | - | - | - | - |
| 1777737537 | 23.89° C | 33% | 1021 hPa | - | - | - | - |
| 1777732137 | 21.67° C | 36% | 1022.4 hPa | - | - | - | - |
| 1777731537 | 23.33° C | 34% | 1022.3 hPa | - | - | - | - |
| 1777724337 | 21.11° C | 38% | 1024.4 hPa | - | - | - | - |
| 1777714738 | 20.56° C | 40% | 1026.6 hPa | - | - | - | - |
| 1777714153 | 21.11° C | 40% | 1026.5 hPa | - | - | - | - |
| 1777708737 | 21.67° C | 35% | 1026.9 hPa | - | - | - | - |
| 1777706937 | 19.44° C | 36% | 1027.5 hPa | - | - | - | - |
| 1777699788 | 14.44° C | 45% | 1028.9 hPa | - | - | - | - |
| 1777699153 | 15° C | 44% | 1028.7 hPa | - | - | - | - |
| 1777698537 | 15.56° C | 42% | 1028.4 hPa | - | - | - | - |
| 1777695538 | 14.44° C | 46% | 1028.6 hPa | - | - | - | - |
| 1777693738 | 13.33° C | 48% | 1028.6 hPa | - | - | - | - |
| 1777693138 | 14.44° C | 46% | 1028.3 hPa | - | - | - | - |
| 1777692538 | 14.44° C | 46% | 1028.3 hPa | - | - | - | - |
| 1777690738 | 13.89° C | 48% | 1028.6 hPa | - | - | - | - |
| 1777689538 | 14.44° C | 48% | 1028.5 hPa | - | - | - | - |
| 1777687138 | 15° C | 48% | 1028.3 hPa | - | - | - | - |
| 1777681738 | 15.56° C | 50% | 1028 hPa | - | - | - | - |
| 1777680553 | 15° C | 52% | 1028.4 hPa | - | - | - | - |
| 1777671538 | 14.44° C | 55% | 1028.2 hPa | - | - | - | - |
* Rain since midnight (hover to see other rain measurements)
** Current wind speed in m/s (hover to see current wind gust speed)